sensor_id;sensor_type;location;lat;lon;timestamp;P1;durP1;ratioP1;P2;durP2;ratioP2
9846;SDS011;68671;50.084;8.794;2023-06-14T00:02:19;0.00;;;0.00;;
9846;SDS011;68671;50.084;8.794;2023-06-14T00:04:47;0.00;;;0.00;;
9846;SDS011;68671;50.084;8.794;2023-06-14T00:07:16;0.00;;;0.00;;
9846;SDS011;68671;50.084;8.794;2023-06-14T00:09:43;0.00;;;0.00;;
9846;SDS011;68671;50.084;8.794;2023-06-14T00:12:10;0.10;;;0.10;;
9846;SDS011;68671;50.084;8.794;2023-06-14T00:14:37;0.00;;;0.00;;
9846;SDS011;68671;50.084;8.794;2023-06-14T00:17:05;0.08;;;0.08;;
9846;SDS011;68671;50.084;8.794;2023-06-14T00:19:32;0.05;;;0.05;;
9846;SDS011;68671;50.084;8.794;2023-06-14T00:22:02;0.10;;;0.10;;
9846;SDS011;68671;50.084;8.794;2023-06-14T00:24:29;0.00;;;0.00;;
9846;SDS011;68671;50.084;8.794;2023-06-14T00:26:56;0.00;;;0.00;;
9846;SDS011;68671;50.084;8.794;2023-06-14T00:29:23;0.00;;;0.00;;
9846;SDS011;68671;50.084;8.794;2023-06-14T00:31:50;0.00;;;0.00;;
9846;SDS011;68671;50.084;8.794;2023-06-14T00:34:17;0.00;;;0.00;;
9846;SDS011;68671;50.084;8.794;2023-06-14T00:36:44;0.10;;;0.10;;
9846;SDS011;68671;50.084;8.794;2023-06-14T00:39:12;0.00;;;0.00;;
9846;SDS011;68671;50.084;8.794;2023-06-14T00:41:39;0.00;;;0.00;;
9846;SDS011;68671;50.084;8.794;2023-06-14T00:44:06;0.00;;;0.00;;
9846;SDS011;68671;50.084;8.794;2023-06-14T00:46:33;0.00;;;0.00;;
9846;SDS011;68671;50.084;8.794;2023-06-14T00:49:00;0.03;;;0.03;;
9846;SDS011;68671;50.084;8.794;2023-06-14T00:51:28;0.00;;;0.00;;
9846;SDS011;68671;50.084;8.794;2023-06-14T00:53:55;0.10;;;0.10;;
9846;SDS011;68671;50.084;8.794;2023-06-14T00:56:23;0.10;;;0.10;;
9846;SDS011;68671;50.084;8.794;2023-06-14T00:58:50;0.10;;;0.10;;
9846;SDS011;68671;50.084;8.794;2023-06-14T01:01:17;0.10;;;0.10;;
9846;SDS011;68671;50.084;8.794;2023-06-14T01:03:44;0.10;;;0.10;;
9846;SDS011;68671;50.084;8.794;2023-06-14T01:06:15;0.00;;;0.00;;
9846;SDS011;68671;50.084;8.794;2023-06-14T01:08:56;0.10;;;0.10;;
9846;SDS011;68671;50.084;8.794;2023-06-14T01:11:32;0.00;;;0.00;;
9846;SDS011;68671;50.084;8.794;2023-06-14T01:14:07;0.10;;;0.10;;
9846;SDS011;68671;50.084;8.794;2023-06-14T01:16:36;0.10;;;0.10;;
9846;SDS011;68671;50.084;8.794;2023-06-14T01:19:04;0.00;;;0.00;;
9846;SDS011;68671;50.084;8.794;2023-06-14T01:21:32;0.00;;;0.00;;
9846;SDS011;68671;50.084;8.794;2023-06-14T01:24:08;0.10;;;0.10;;
9846;SDS011;68671;50.084;8.794;2023-06-14T01:26:36;0.10;;;0.10;;
9846;SDS011;68671;50.084;8.794;2023-06-14T01:29:03;0.00;;;0.00;;
9846;SDS011;68671;50.084;8.794;2023-06-14T01:31:32;0.00;;;0.00;;
9846;SDS011;68671;50.084;8.794;2023-06-14T01:34:06;0.10;;;0.10;;
9846;SDS011;68671;50.084;8.794;2023-06-14T01:36:34;0.00;;;0.00;;
9846;SDS011;68671;50.084;8.794;2023-06-14T01:39:02;0.10;;;0.10;;
9846;SDS011;68671;50.084;8.794;2023-06-14T01:41:33;0.10;;;0.10;;
9846;SDS011;68671;50.084;8.794;2023-06-14T01:44:01;0.10;;;0.10;;
9846;SDS011;68671;50.084;8.794;2023-06-14T01:46:29;0.10;;;0.10;;
9846;SDS011;68671;50.084;8.794;2023-06-14T01:48:56;0.10;;;0.10;;
9846;SDS011;68671;50.084;8.794;2023-06-14T01:51:23;0.10;;;0.10;;
9846;SDS011;68671;50.084;8.794;2023-06-14T01:53:50;0.10;;;0.10;;
9846;SDS011;68671;50.084;8.794;2023-06-14T01:56:17;0.10;;;0.10;;
9846;SDS011;68671;50.084;8.794;2023-06-14T01:58:46;0.10;;;0.10;;
9846;SDS011;68671;50.084;8.794;2023-06-14T02:01:13;0.10;;;0.10;;
9846;SDS011;68671;50.084;8.794;2023-06-14T02:03:41;0.10;;;0.10;;
9846;SDS011;68671;50.084;8.794;2023-06-14T02:06:10;0.10;;;0.10;;
9846;SDS011;68671;50.084;8.794;2023-06-14T02:08:37;0.10;;;0.10;;
9846;SDS011;68671;50.084;8.794;2023-06-14T02:11:04;0.10;;;0.10;;
9846;SDS011;68671;50.084;8.794;2023-06-14T02:13:31;0.00;;;0.00;;
9846;SDS011;68671;50.084;8.794;2023-06-14T02:16:01;0.10;;;0.10;;
9846;SDS011;68671;50.084;8.794;2023-06-14T02:18:28;0.00;;;0.00;;
9846;SDS011;68671;50.084;8.794;2023-06-14T02:20:55;0.10;;;0.10;;
9846;SDS011;68671;50.084;8.794;2023-06-14T02:23:22;0.10;;;0.10;;
9846;SDS011;68671;50.084;8.794;2023-06-14T02:25:49;0.10;;;0.10;;
9846;SDS011;68671;50.084;8.794;2023-06-14T02:28:16;0.10;;;0.10;;
9846;SDS011;68671;50.084;8.794;2023-06-14T02:30:42;0.00;;;0.00;;
9846;SDS011;68671;50.084;8.794;2023-06-14T02:33:11;0.00;;;0.00;;
9846;SDS011;68671;50.084;8.794;2023-06-14T02:35:38;0.10;;;0.10;;
9846;SDS011;68671;50.084;8.794;2023-06-14T02:38:05;0.10;;;0.10;;
9846;SDS011;68671;50.084;8.794;2023-06-14T02:40:32;0.00;;;0.00;;
9846;SDS011;68671;50.084;8.794;2023-06-14T02:42:59;0.10;;;0.10;;
9846;SDS011;68671;50.084;8.794;2023-06-14T02:45:27;0.10;;;0.10;;
9846;SDS011;68671;50.084;8.794;2023-06-14T02:47:53;0.10;;;0.10;;
9846;SDS011;68671;50.084;8.794;2023-06-14T02:50:22;0.00;;;0.00;;
9846;SDS011;68671;50.084;8.794;2023-06-14T02:52:49;0.00;;;0.00;;
9846;SDS011;68671;50.084;8.794;2023-06-14T02:55:17;0.10;;;0.10;;
9846;SDS011;68671;50.084;8.794;2023-06-14T02:57:44;0.00;;;0.00;;
9846;SDS011;68671;50.084;8.794;2023-06-14T03:00:13;0.10;;;0.10;;
9846;SDS011;68671;50.084;8.794;2023-06-14T03:02:40;0.00;;;0.00;;
9846;SDS011;68671;50.084;8.794;2023-06-14T03:05:08;0.10;;;0.10;;
9846;SDS011;68671;50.084;8.794;2023-06-14T03:07:36;0.10;;;0.10;;
9846;SDS011;68671;50.084;8.794;2023-06-14T03:10:06;0.00;;;0.00;;
9846;SDS011;68671;50.084;8.794;2023-06-14T03:12:34;0.05;;;0.05;;
9846;SDS011;68671;50.084;8.794;2023-06-14T03:15:01;0.00;;;0.00;;
9846;SDS011;68671;50.084;8.794;2023-06-14T03:17:29;0.10;;;0.10;;
9846;SDS011;68671;50.084;8.794;2023-06-14T03:19:58;0.10;;;0.10;;
9846;SDS011;68671;50.084;8.794;2023-06-14T03:22:25;0.10;;;0.10;;
9846;SDS011;68671;50.084;8.794;2023-06-14T03:24:54;0.10;;;0.10;;
9846;SDS011;68671;50.084;8.794;2023-06-14T03:27:22;0.10;;;0.10;;
9846;SDS011;68671;50.084;8.794;2023-06-14T03:29:49;0.10;;;0.10;;
9846;SDS011;68671;50.084;8.794;2023-06-14T03:32:16;0.00;;;0.00;;
9846;SDS011;68671;50.084;8.794;2023-06-14T03:34:43;0.10;;;0.10;;
9846;SDS011;68671;50.084;8.794;2023-06-14T03:37:10;0.10;;;0.10;;
9846;SDS011;68671;50.084;8.794;2023-06-14T03:39:37;0.10;;;0.10;;
9846;SDS011;68671;50.084;8.794;2023-06-14T03:42:12;0.10;;;0.10;;
9846;SDS011;68671;50.084;8.794;2023-06-14T03:44:39;0.10;;;0.10;;
9846;SDS011;68671;50.084;8.794;2023-06-14T03:47:06;0.10;;;0.10;;
9846;SDS011;68671;50.084;8.794;2023-06-14T03:49:34;0.10;;;0.10;;
9846;SDS011;68671;50.084;8.794;2023-06-14T03:52:02;0.10;;;0.10;;
9846;SDS011;68671;50.084;8.794;2023-06-14T03:54:29;0.10;;;0.10;;
9846;SDS011;68671;50.084;8.794;2023-06-14T03:56:57;0.10;;;0.10;;
9846;SDS011;68671;50.084;8.794;2023-06-14T03:59:26;0.10;;;0.10;;
9846;SDS011;68671;50.084;8.794;2023-06-14T04:01:53;0.10;;;0.10;;
9846;SDS011;68671;50.084;8.794;2023-06-14T04:04:20;0.10;;;0.10;;
9846;SDS011;68671;50.084;8.794;2023-06-14T04:06:53;0.10;;;0.10;;
9846;SDS011;68671;50.084;8.794;2023-06-14T04:09:21;0.00;;;0.00;;
9846;SDS011;68671;50.084;8.794;2023-06-14T04:11:49;0.10;;;0.10;;
9846;SDS011;68671;50.084;8.794;2023-06-14T04:14:17;0.10;;;0.10;;
9846;SDS011;68671;50.084;8.794;2023-06-14T04:16:46;0.10;;;0.10;;
9846;SDS011;68671;50.084;8.794;2023-06-14T04:19:13;0.10;;;0.10;;
9846;SDS011;68671;50.084;8.794;2023-06-14T04:21:41;0.10;;;0.10;;
9846;SDS011;68671;50.084;8.794;2023-06-14T04:24:08;0.10;;;0.10;;
9846;SDS011;68671;50.084;8.794;2023-06-14T04:26:38;0.10;;;0.10;;
9846;SDS011;68671;50.084;8.794;2023-06-14T04:29:05;0.03;;;0.03;;
9846;SDS011;68671;50.084;8.794;2023-06-14T04:31:32;0.10;;;0.10;;
9846;SDS011;68671;50.084;8.794;2023-06-14T04:34:04;0.10;;;0.10;;
9846;SDS011;68671;50.084;8.794;2023-06-14T04:36:31;0.10;;;0.10;;
9846;SDS011;68671;50.084;8.794;2023-06-14T04:39:04;0.10;;;0.10;;
9846;SDS011;68671;50.084;8.794;2023-06-14T04:41:32;0.10;;;0.10;;
9846;SDS011;68671;50.084;8.794;2023-06-14T04:44:02;0.10;;;0.10;;
9846;SDS011;68671;50.084;8.794;2023-06-14T04:46:38;0.10;;;0.10;;
9846;SDS011;68671;50.084;8.794;2023-06-14T04:49:14;0.10;;;0.10;;
9846;SDS011;68671;50.084;8.794;2023-06-14T04:51:44;0.10;;;0.10;;
9846;SDS011;68671;50.084;8.794;2023-06-14T04:54:16;0.10;;;0.10;;
9846;SDS011;68671;50.084;8.794;2023-06-14T04:56:57;0.10;;;0.10;;
9846;SDS011;68671;50.084;8.794;2023-06-14T04:59:32;0.10;;;0.10;;
9846;SDS011;68671;50.084;8.794;2023-06-14T05:02:00;0.10;;;0.10;;
9846;SDS011;68671;50.084;8.794;2023-06-14T05:04:29;0.10;;;0.10;;
9846;SDS011;68671;50.084;8.794;2023-06-14T05:06:56;0.10;;;0.10;;
9846;SDS011;68671;50.084;8.794;2023-06-14T05:09:23;0.10;;;0.10;;
9846;SDS011;68671;50.084;8.794;2023-06-14T05:11:54;0.10;;;0.10;;
9846;SDS011;68671;50.084;8.794;2023-06-14T05:15:50;0.10;;;0.10;;
9846;SDS011;68671;50.084;8.794;2023-06-14T05:19:18;0.10;;;0.10;;
9846;SDS011;68671;50.084;8.794;2023-06-14T05:22:22;0.10;;;0.10;;
9846;SDS011;68671;50.084;8.794;2023-06-14T05:24:50;0.10;;;0.10;;
9846;SDS011;68671;50.084;8.794;2023-06-14T05:28:31;0.10;;;0.10;;
9846;SDS011;68671;50.084;8.794;2023-06-14T05:30:40;0.10;;;0.10;;
9846;SDS011;68671;50.084;8.794;2023-06-14T05:33:10;0.10;;;0.10;;
9846;SDS011;68671;50.084;8.794;2023-06-14T05:35:40;0.10;;;0.10;;
9846;SDS011;68671;50.084;8.794;2023-06-14T05:38:19;0.10;;;0.10;;
9846;SDS011;68671;50.084;8.794;2023-06-14T05:40:46;0.10;;;0.10;;
9846;SDS011;68671;50.084;8.794;2023-06-14T05:43:16;0.10;;;0.10;;
9846;SDS011;68671;50.084;8.794;2023-06-14T05:46:10;0.10;;;0.10;;
9846;SDS011;68671;50.084;8.794;2023-06-14T05:48:42;0.20;;;0.20;;
9846;SDS011;68671;50.084;8.794;2023-06-14T05:51:28;0.10;;;0.10;;
9846;SDS011;68671;50.084;8.794;2023-06-14T05:53:57;0.20;;;0.20;;
9846;SDS011;68671;50.084;8.794;2023-06-14T05:56:24;0.10;;;0.10;;
9846;SDS011;68671;50.084;8.794;2023-06-14T05:59:09;0.10;;;0.10;;
9846;SDS011;68671;50.084;8.794;2023-06-14T06:05:06;0.20;;;0.20;;
9846;SDS011;68671;50.084;8.794;2023-06-14T06:07:33;0.10;;;0.10;;
9846;SDS011;68671;50.084;8.794;2023-06-14T06:10:02;0.10;;;0.10;;
9846;SDS011;68671;50.084;8.794;2023-06-14T06:12:32;0.10;;;0.10;;
9846;SDS011;68671;50.084;8.794;2023-06-14T06:15:00;0.20;;;0.20;;
9846;SDS011;68671;50.084;8.794;2023-06-14T06:17:27;0.10;;;0.10;;
9846;SDS011;68671;50.084;8.794;2023-06-14T06:19:54;0.10;;;0.10;;
9846;SDS011;68671;50.084;8.794;2023-06-14T06:22:21;0.20;;;0.20;;
9846;SDS011;68671;50.084;8.794;2023-06-14T06:24:48;0.10;;;0.10;;
9846;SDS011;68671;50.084;8.794;2023-06-14T06:27:16;0.20;;;0.20;;
9846;SDS011;68671;50.084;8.794;2023-06-14T06:29:44;0.13;;;0.13;;
9846;SDS011;68671;50.084;8.794;2023-06-14T06:32:10;0.20;;;0.20;;
9846;SDS011;68671;50.084;8.794;2023-06-14T06:34:37;0.20;;;0.20;;
9846;SDS011;68671;50.084;8.794;2023-06-14T06:37:05;0.20;;;0.20;;
9846;SDS011;68671;50.084;8.794;2023-06-14T06:39:32;0.20;;;0.20;;
9846;SDS011;68671;50.084;8.794;2023-06-14T06:42:00;0.20;;;0.20;;
9846;SDS011;68671;50.084;8.794;2023-06-14T06:44:29;0.20;;;0.20;;
9846;SDS011;68671;50.084;8.794;2023-06-14T06:46:57;0.20;;;0.20;;
9846;SDS011;68671;50.084;8.794;2023-06-14T06:49:24;0.20;;;0.20;;
9846;SDS011;68671;50.084;8.794;2023-06-14T06:52:00;0.10;;;0.10;;
9846;SDS011;68671;50.084;8.794;2023-06-14T06:54:28;0.20;;;0.20;;
9846;SDS011;68671;50.084;8.794;2023-06-14T06:56:55;0.20;;;0.20;;
9846;SDS011;68671;50.084;8.794;2023-06-14T06:59:22;0.20;;;0.20;;
9846;SDS011;68671;50.084;8.794;2023-06-14T07:01:51;0.20;;;0.20;;
9846;SDS011;68671;50.084;8.794;2023-06-14T07:04:17;0.20;;;0.20;;
9846;SDS011;68671;50.084;8.794;2023-06-14T07:06:46;0.20;;;0.20;;
9846;SDS011;68671;50.084;8.794;2023-06-14T07:09:13;0.20;;;0.20;;
9846;SDS011;68671;50.084;8.794;2023-06-14T07:11:45;0.10;;;0.10;;
9846;SDS011;68671;50.084;8.794;2023-06-14T07:14:13;0.15;;;0.15;;
9846;SDS011;68671;50.084;8.794;2023-06-14T07:16:42;0.20;;;0.20;;
9846;SDS011;68671;50.084;8.794;2023-06-14T07:19:12;0.20;;;0.20;;
9846;SDS011;68671;50.084;8.794;2023-06-14T07:21:40;0.20;;;0.20;;
9846;SDS011;68671;50.084;8.794;2023-06-14T07:24:07;0.20;;;0.20;;
9846;SDS011;68671;50.084;8.794;2023-06-14T07:26:34;0.20;;;0.20;;
9846;SDS011;68671;50.084;8.794;2023-06-14T07:29:01;0.20;;;0.20;;
9846;SDS011;68671;50.084;8.794;2023-06-14T07:31:28;0.20;;;0.20;;
9846;SDS011;68671;50.084;8.794;2023-06-14T07:33:55;0.20;;;0.20;;
9846;SDS011;68671;50.084;8.794;2023-06-14T07:36:24;0.20;;;0.20;;
9846;SDS011;68671;50.084;8.794;2023-06-14T07:38:51;0.20;;;0.20;;
9846;SDS011;68671;50.084;8.794;2023-06-14T07:41:18;0.20;;;0.20;;
9846;SDS011;68671;50.084;8.794;2023-06-14T07:43:45;0.20;;;0.20;;
9846;SDS011;68671;50.084;8.794;2023-06-14T07:46:12;0.20;;;0.20;;
9846;SDS011;68671;50.084;8.794;2023-06-14T07:48:39;0.20;;;0.20;;
9846;SDS011;68671;50.084;8.794;2023-06-14T07:51:06;0.20;;;0.20;;
9846;SDS011;68671;50.084;8.794;2023-06-14T07:53:35;0.20;;;0.20;;
9846;SDS011;68671;50.084;8.794;2023-06-14T07:56:02;0.20;;;0.20;;
9846;SDS011;68671;50.084;8.794;2023-06-14T07:58:30;0.20;;;0.20;;
9846;SDS011;68671;50.084;8.794;2023-06-14T08:00:57;0.20;;;0.20;;
9846;SDS011;68671;50.084;8.794;2023-06-14T08:03:25;0.20;;;0.20;;
9846;SDS011;68671;50.084;8.794;2023-06-14T08:05:55;0.22;;;0.22;;
9846;SDS011;68671;50.084;8.794;2023-06-14T08:08:25;0.20;;;0.20;;
9846;SDS011;68671;50.084;8.794;2023-06-14T08:10:54;0.20;;;0.20;;
9846;SDS011;68671;50.084;8.794;2023-06-14T08:13:21;0.20;;;0.20;;
9846;SDS011;68671;50.084;8.794;2023-06-14T08:15:51;0.20;;;0.20;;
9846;SDS011;68671;50.084;8.794;2023-06-14T08:18:18;0.20;;;0.20;;
9846;SDS011;68671;50.084;8.794;2023-06-14T08:23:37;0.17;;;0.17;;
9846;SDS011;68671;50.084;8.794;2023-06-14T08:26:19;0.20;;;0.20;;
9846;SDS011;68671;50.084;8.794;2023-06-14T08:28:49;0.10;;;0.10;;
9846;SDS011;68671;50.084;8.794;2023-06-14T08:31:16;0.10;;;0.10;;
9846;SDS011;68671;50.084;8.794;2023-06-14T08:33:43;0.10;;;0.10;;
9846;SDS011;68671;50.084;8.794;2023-06-14T08:36:10;0.10;;;0.10;;
9846;SDS011;68671;50.084;8.794;2023-06-14T08:38:40;0.10;;;0.10;;
9846;SDS011;68671;50.084;8.794;2023-06-14T08:41:06;0.10;;;0.10;;
9846;SDS011;68671;50.084;8.794;2023-06-14T08:43:39;0.00;;;0.00;;
9846;SDS011;68671;50.084;8.794;2023-06-14T08:46:06;0.10;;;0.10;;
9846;SDS011;68671;50.084;8.794;2023-06-14T08:48:37;0.10;;;0.10;;
9846;SDS011;68671;50.084;8.794;2023-06-14T08:51:05;0.10;;;0.10;;
9846;SDS011;68671;50.084;8.794;2023-06-14T08:53:32;0.10;;;0.10;;
9846;SDS011;68671;50.084;8.794;2023-06-14T08:56:07;0.10;;;0.10;;
9846;SDS011;68671;50.084;8.794;2023-06-14T08:58:39;0.10;;;0.10;;
9846;SDS011;68671;50.084;8.794;2023-06-14T09:01:10;0.05;;;0.05;;
9846;SDS011;68671;50.084;8.794;2023-06-14T09:03:39;0.10;;;0.10;;
9846;SDS011;68671;50.084;8.794;2023-06-14T09:06:06;0.10;;;0.10;;
9846;SDS011;68671;50.084;8.794;2023-06-14T09:08:38;0.00;;;0.00;;
9846;SDS011;68671;50.084;8.794;2023-06-14T09:11:08;0.10;;;0.10;;
9846;SDS011;68671;50.084;8.794;2023-06-14T09:13:36;0.10;;;0.10;;
9846;SDS011;68671;50.084;8.794;2023-06-14T09:16:05;0.05;;;0.05;;
9846;SDS011;68671;50.084;8.794;2023-06-14T09:18:35;0.00;;;0.00;;
9846;SDS011;68671;50.084;8.794;2023-06-14T09:21:03;0.00;;;0.00;;
9846;SDS011;68671;50.084;8.794;2023-06-14T09:23:33;0.00;;;0.00;;
9846;SDS011;68671;50.084;8.794;2023-06-14T09:26:06;0.00;;;0.00;;
9846;SDS011;68671;50.084;8.794;2023-06-14T09:28:34;0.10;;;0.10;;
9846;SDS011;68671;50.084;8.794;2023-06-14T09:31:00;0.00;;;0.00;;
9846;SDS011;68671;50.084;8.794;2023-06-14T09:33:30;0.00;;;0.00;;
9846;SDS011;68671;50.084;8.794;2023-06-14T09:35:57;0.10;;;0.10;;
9846;SDS011;68671;50.084;8.794;2023-06-14T09:38:24;0.10;;;0.10;;
9846;SDS011;68671;50.084;8.794;2023-06-14T09:40:52;0.10;;;0.10;;
9846;SDS011;68671;50.084;8.794;2023-06-14T09:43:19;0.00;;;0.00;;
9846;SDS011;68671;50.084;8.794;2023-06-14T09:45:47;0.00;;;0.00;;
9846;SDS011;68671;50.084;8.794;2023-06-14T09:48:14;0.10;;;0.10;;
9846;SDS011;68671;50.084;8.794;2023-06-14T09:50:45;0.10;;;0.10;;
9846;SDS011;68671;50.084;8.794;2023-06-14T09:53:13;0.03;;;0.03;;
9846;SDS011;68671;50.084;8.794;2023-06-14T09:55:41;0.10;;;0.10;;
9846;SDS011;68671;50.084;8.794;2023-06-14T09:58:09;0.10;;;0.10;;
9846;SDS011;68671;50.084;8.794;2023-06-14T10:00:37;0.00;;;0.00;;
9846;SDS011;68671;50.084;8.794;2023-06-14T10:03:07;0.00;;;0.00;;
9846;SDS011;68671;50.084;8.794;2023-06-14T10:05:40;0.00;;;0.00;;
9846;SDS011;68671;50.084;8.794;2023-06-14T10:08:13;0.00;;;0.00;;
9846;SDS011;68671;50.084;8.794;2023-06-14T10:10:42;0.10;;;0.10;;
9846;SDS011;68671;50.084;8.794;2023-06-14T10:13:09;0.05;;;0.05;;
9846;SDS011;68671;50.084;8.794;2023-06-14T10:15:58;0.00;;;0.00;;
9846;SDS011;68671;50.084;8.794;2023-06-14T10:18:49;0.03;;;0.03;;
9846;SDS011;68671;50.084;8.794;2023-06-14T10:21:32;0.03;;;0.03;;
9846;SDS011;68671;50.084;8.794;2023-06-14T10:24:12;0.00;;;0.00;;
9846;SDS011;68671;50.084;8.794;2023-06-14T10:26:49;0.00;;;0.00;;
9846;SDS011;68671;50.084;8.794;2023-06-14T10:29:19;0.00;;;0.00;;
9846;SDS011;68671;50.084;8.794;2023-06-14T10:31:47;0.10;;;0.10;;
9846;SDS011;68671;50.084;8.794;2023-06-14T10:34:21;0.10;;;0.10;;
9846;SDS011;68671;50.084;8.794;2023-06-14T10:37:00;0.00;;;0.00;;
9846;SDS011;68671;50.084;8.794;2023-06-14T10:39:30;0.00;;;0.00;;
9846;SDS011;68671;50.084;8.794;2023-06-14T10:41:57;0.00;;;0.00;;
9846;SDS011;68671;50.084;8.794;2023-06-14T10:44:33;0.00;;;0.00;;
9846;SDS011;68671;50.084;8.794;2023-06-14T10:47:31;0.10;;;0.10;;
9846;SDS011;68671;50.084;8.794;2023-06-14T10:57:51;0.00;;;0.00;;
9846;SDS011;68671;50.084;8.794;2023-06-14T11:00:24;0.00;;;0.00;;
9846;SDS011;68671;50.084;8.794;2023-06-14T11:06:08;0.00;;;0.00;;
9846;SDS011;68671;50.084;8.794;2023-06-14T11:08:46;0.00;;;0.00;;
9846;SDS011;68671;50.084;8.794;2023-06-14T11:11:37;0.00;;;0.00;;
9846;SDS011;68671;50.084;8.794;2023-06-14T11:14:09;0.00;;;0.00;;
9846;SDS011;68671;50.084;8.794;2023-06-14T11:16:36;0.00;;;0.00;;
9846;SDS011;68671;50.084;8.794;2023-06-14T11:19:04;0.00;;;0.00;;
9846;SDS011;68671;50.084;8.794;2023-06-14T11:21:32;0.00;;;0.00;;
9846;SDS011;68671;50.084;8.794;2023-06-14T11:23:59;0.00;;;0.00;;
9846;SDS011;68671;50.084;8.794;2023-06-14T11:26:26;0.00;;;0.00;;
9846;SDS011;68671;50.084;8.794;2023-06-14T11:28:55;0.00;;;0.00;;
9846;SDS011;68671;50.084;8.794;2023-06-14T11:31:31;0.10;;;0.10;;
9846;SDS011;68671;50.084;8.794;2023-06-14T11:34:01;0.00;;;0.00;;
9846;SDS011;68671;50.084;8.794;2023-06-14T11:40:00;0.00;;;0.00;;
9846;SDS011;68671;50.084;8.794;2023-06-14T11:42:39;0.10;;;0.10;;
9846;SDS011;68671;50.084;8.794;2023-06-14T11:45:07;0.00;;;0.00;;
9846;SDS011;68671;50.084;8.794;2023-06-14T11:47:37;0.00;;;0.00;;
9846;SDS011;68671;50.084;8.794;2023-06-14T11:50:06;0.00;;;0.00;;
9846;SDS011;68671;50.084;8.794;2023-06-14T11:52:35;0.00;;;0.00;;
9846;SDS011;68671;50.084;8.794;2023-06-14T11:58:35;0.00;;;0.00;;
9846;SDS011;68671;50.084;8.794;2023-06-14T12:01:03;0.00;;;0.00;;
9846;SDS011;68671;50.084;8.794;2023-06-14T12:03:32;0.00;;;0.00;;
9846;SDS011;68671;50.084;8.794;2023-06-14T12:06:04;0.10;;;0.10;;
9846;SDS011;68671;50.084;8.794;2023-06-14T12:08:34;0.00;;;0.00;;
9846;SDS011;68671;50.084;8.794;2023-06-14T12:11:05;0.00;;;0.00;;
9846;SDS011;68671;50.084;8.794;2023-06-14T12:13:33;0.00;;;0.00;;
9846;SDS011;68671;50.084;8.794;2023-06-14T12:16:01;0.00;;;0.00;;
9846;SDS011;68671;50.084;8.794;2023-06-14T12:18:34;0.00;;;0.00;;
9846;SDS011;68671;50.084;8.794;2023-06-14T12:21:02;0.00;;;0.00;;
9846;SDS011;68671;50.084;8.794;2023-06-14T12:23:44;0.10;;;0.10;;
9846;SDS011;68671;50.084;8.794;2023-06-14T12:26:14;0.00;;;0.00;;
9846;SDS011;68671;50.084;8.794;2023-06-14T12:28:42;0.00;;;0.00;;
9846;SDS011;68671;50.084;8.794;2023-06-14T12:31:11;0.00;;;0.00;;
9846;SDS011;68671;50.084;8.794;2023-06-14T12:33:41;0.00;;;0.00;;
9846;SDS011;68671;50.084;8.794;2023-06-14T12:36:08;0.00;;;0.00;;
9846;SDS011;68671;50.084;8.794;2023-06-14T12:38:36;0.10;;;0.10;;
9846;SDS011;68671;50.084;8.794;2023-06-14T12:41:04;0.00;;;0.00;;
9846;SDS011;68671;50.084;8.794;2023-06-14T12:43:30;0.00;;;0.00;;
9846;SDS011;68671;50.084;8.794;2023-06-14T12:45:57;0.05;;;0.05;;
9846;SDS011;68671;50.084;8.794;2023-06-14T12:48:24;0.00;;;0.00;;
9846;SDS011;68671;50.084;8.794;2023-06-14T12:50:53;0.08;;;0.08;;
9846;SDS011;68671;50.084;8.794;2023-06-14T12:53:20;0.00;;;0.00;;
9846;SDS011;68671;50.084;8.794;2023-06-14T12:55:48;0.00;;;0.00;;
9846;SDS011;68671;50.084;8.794;2023-06-14T12:58:15;0.00;;;0.00;;
9846;SDS011;68671;50.084;8.794;2023-06-14T13:00:44;0.00;;;0.00;;
9846;SDS011;68671;50.084;8.794;2023-06-14T13:03:11;0.00;;;0.00;;
9846;SDS011;68671;50.084;8.794;2023-06-14T13:05:39;0.00;;;0.00;;
9846;SDS011;68671;50.084;8.794;2023-06-14T13:08:09;0.00;;;0.00;;
9846;SDS011;68671;50.084;8.794;2023-06-14T13:10:36;0.00;;;0.00;;
9846;SDS011;68671;50.084;8.794;2023-06-14T13:13:03;0.03;;;0.03;;
9846;SDS011;68671;50.084;8.794;2023-06-14T13:15:30;0.00;;;0.00;;
9846;SDS011;68671;50.084;8.794;2023-06-14T13:17:57;0.00;;;0.00;;
9846;SDS011;68671;50.084;8.794;2023-06-14T13:20:24;0.00;;;0.00;;
9846;SDS011;68671;50.084;8.794;2023-06-14T13:22:50;0.00;;;0.00;;
9846;SDS011;68671;50.084;8.794;2023-06-14T13:25:19;0.00;;;0.00;;
9846;SDS011;68671;50.084;8.794;2023-06-14T13:27:47;0.00;;;0.00;;
9846;SDS011;68671;50.084;8.794;2023-06-14T13:30:14;0.00;;;0.00;;
9846;SDS011;68671;50.084;8.794;2023-06-14T13:32:41;0.00;;;0.00;;
9846;SDS011;68671;50.084;8.794;2023-06-14T13:35:08;0.10;;;0.10;;
9846;SDS011;68671;50.084;8.794;2023-06-14T13:37:35;0.00;;;0.00;;
9846;SDS011;68671;50.084;8.794;2023-06-14T13:40:02;0.00;;;0.00;;
9846;SDS011;68671;50.084;8.794;2023-06-14T13:42:32;0.03;;;0.03;;
9846;SDS011;68671;50.084;8.794;2023-06-14T13:44:59;0.00;;;0.00;;
9846;SDS011;68671;50.084;8.794;2023-06-14T13:47:26;0.00;;;0.00;;
9846;SDS011;68671;50.084;8.794;2023-06-14T13:49:52;0.00;;;0.00;;
9846;SDS011;68671;50.084;8.794;2023-06-14T13:52:19;0.00;;;0.00;;
9846;SDS011;68671;50.084;8.794;2023-06-14T13:54:46;0.00;;;0.00;;
9846;SDS011;68671;50.084;8.794;2023-06-14T13:57:13;0.00;;;0.00;;
9846;SDS011;68671;50.084;8.794;2023-06-14T13:59:42;0.00;;;0.00;;
9846;SDS011;68671;50.084;8.794;2023-06-14T14:02:10;0.00;;;0.00;;
9846;SDS011;68671;50.084;8.794;2023-06-14T14:04:38;0.00;;;0.00;;
9846;SDS011;68671;50.084;8.794;2023-06-14T14:07:06;0.00;;;0.00;;
9846;SDS011;68671;50.084;8.794;2023-06-14T14:09:33;0.10;;;0.10;;
9846;SDS011;68671;50.084;8.794;2023-06-14T14:12:02;0.00;;;0.00;;
9846;SDS011;68671;50.084;8.794;2023-06-14T14:14:30;0.00;;;0.00;;
9846;SDS011;68671;50.084;8.794;2023-06-14T14:17:00;0.00;;;0.00;;
9846;SDS011;68671;50.084;8.794;2023-06-14T14:19:27;0.00;;;0.00;;
9846;SDS011;68671;50.084;8.794;2023-06-14T14:21:55;0.00;;;0.00;;
9846;SDS011;68671;50.084;8.794;2023-06-14T14:24:22;0.00;;;0.00;;
9846;SDS011;68671;50.084;8.794;2023-06-14T14:26:49;0.00;;;0.00;;
9846;SDS011;68671;50.084;8.794;2023-06-14T14:29:18;0.00;;;0.00;;
9846;SDS011;68671;50.084;8.794;2023-06-14T14:31:46;0.00;;;0.00;;
9846;SDS011;68671;50.084;8.794;2023-06-14T14:34:14;0.00;;;0.00;;
9846;SDS011;68671;50.084;8.794;2023-06-14T14:36:41;0.10;;;0.10;;
9846;SDS011;68671;50.084;8.794;2023-06-14T14:39:09;0.10;;;0.10;;
9846;SDS011;68671;50.084;8.794;2023-06-14T14:41:36;0.03;;;0.03;;
9846;SDS011;68671;50.084;8.794;2023-06-14T14:44:07;0.00;;;0.00;;
9846;SDS011;68671;50.084;8.794;2023-06-14T14:46:40;0.00;;;0.00;;
9846;SDS011;68671;50.084;8.794;2023-06-14T14:49:08;0.00;;;0.00;;
9846;SDS011;68671;50.084;8.794;2023-06-14T14:51:40;0.00;;;0.00;;
9846;SDS011;68671;50.084;8.794;2023-06-14T15:10:02;0.00;;;0.00;;
9846;SDS011;68671;50.084;8.794;2023-06-14T15:12:46;0.00;;;0.00;;
9846;SDS011;68671;50.084;8.794;2023-06-14T15:18:07;0.00;;;0.00;;
9846;SDS011;68671;50.084;8.794;2023-06-14T15:20:41;0.00;;;0.00;;
9846;SDS011;68671;50.084;8.794;2023-06-14T15:23:21;0.10;;;0.10;;
9846;SDS011;68671;50.084;8.794;2023-06-14T15:25:53;0.00;;;0.00;;
9846;SDS011;68671;50.084;8.794;2023-06-14T15:28:23;0.05;;;0.05;;
9846;SDS011;68671;50.084;8.794;2023-06-14T15:30:55;0.00;;;0.00;;
9846;SDS011;68671;50.084;8.794;2023-06-14T15:37:05;0.00;;;0.00;;
9846;SDS011;68671;50.084;8.794;2023-06-14T15:39:35;0.00;;;0.00;;
9846;SDS011;68671;50.084;8.794;2023-06-14T15:42:06;0.00;;;0.00;;
9846;SDS011;68671;50.084;8.794;2023-06-14T15:44:42;0.00;;;0.00;;
9846;SDS011;68671;50.084;8.794;2023-06-14T15:47:23;0.00;;;0.00;;
9846;SDS011;68671;50.084;8.794;2023-06-14T15:50:03;0.00;;;0.00;;
9846;SDS011;68671;50.084;8.794;2023-06-14T15:52:33;0.08;;;0.08;;
9846;SDS011;68671;50.084;8.794;2023-06-14T15:55:07;0.10;;;0.10;;
9846;SDS011;68671;50.084;8.794;2023-06-14T16:00:36;0.10;;;0.10;;
9846;SDS011;68671;50.084;8.794;2023-06-14T16:03:12;0.10;;;0.10;;
9846;SDS011;68671;50.084;8.794;2023-06-14T16:05:44;0.00;;;0.00;;
9846;SDS011;68671;50.084;8.794;2023-06-14T16:08:28;0.08;;;0.08;;